Time;durP1;ratioP1;P1;durP2;ratioP2;P2;SDS_P1;SDS_P2;PMS_P1;PMS_P2;Temp;Humidity;BMP_temperature;BMP_pressure;BME280_temperature;BME280_humidity;BME280_pressure;Samples;Min_cycle;Max_cycle;Signal;HPM_P1;HPM_P2
2023/07/25 00:00:54;;;;;;;9.70;4.63;;;12.90;99.90;;;;;;5008153;28;20424;-80
2023/07/25 00:03:21;;;;;;;10.27;5.10;;;;;;;;;;4994602;28;20981;-79
2023/07/25 00:05:46;;;;;;;8.57;4.70;;;12.90;99.90;;;;;;5008974;28;20498;-80
2023/07/25 00:08:13;;;;;;;9.27;4.63;;;;;;;;;;4977282;28;20565;-80
2023/07/25 00:10:38;;;;;;;9.30;4.82;;;12.70;99.90;;;;;;4992391;28;20461;-81
2023/07/25 00:13:04;;;;;;;9.80;4.88;;;12.80;99.90;;;;;;4986852;28;20456;-80
2023/07/25 00:15:30;;;;;;;14.20;5.23;;;12.80;99.90;;;;;;4979327;28;20416;-80
2023/07/25 00:17:56;;;;;;;13.00;5.47;;;;;;;;;;4988890;28;20439;-80
2023/07/25 00:20:22;;;;;;;13.43;5.05;;;13.10;99.90;;;;;;5005839;28;20419;-80
2023/07/25 00:22:48;;;;;;;14.45;5.18;;;;;;;;;;5002894;28;20440;-80
2023/07/25 00:25:15;;;;;;;13.03;5.30;;;12.60;99.90;;;;;;4993977;28;20988;-80
2023/07/25 00:27:41;;;;;;;13.40;5.38;;;;;;;;;;4992141;28;20424;-80
2023/07/25 00:30:08;;;;;;;11.52;5.10;;;;;;;;;;4988631;28;20485;-80
2023/07/25 00:32:34;;;;;;;14.13;5.00;;;12.50;99.90;;;;;;4960951;28;20787;-81
2023/07/25 00:35:00;;;;;;;17.35;5.20;;;12.70;99.90;;;;;;4962958;28;20425;-81
2023/07/25 00:37:31;;;;;;;9.50;4.80;;;12.70;99.90;;;;;;4998265;28;22149;-81
2023/07/25 00:39:57;;;;;;;11.70;4.63;;;12.40;99.90;;;;;;4988867;28;20473;-80
2023/07/25 00:42:23;;;;;;;9.10;4.60;;;;;;;;;;4993785;28;20499;-80
2023/07/25 00:44:50;;;;;;;13.85;5.22;;;12.60;99.90;;;;;;5012085;28;20929;-81
2023/07/25 00:47:17;;;;;;;12.63;5.05;;;12.40;99.90;;;;;;4997469;28;20427;-81
2023/07/25 00:49:45;;;;;;;11.07;4.93;;;12.70;99.90;;;;;;5012974;28;20915;-81
2023/07/25 00:52:11;;;;;;;12.57;5.00;;;;;;;;;;4993838;28;20422;-81
2023/07/25 00:54:49;;;;;;;12.10;4.85;;;12.50;99.90;;;;;;5002347;28;20486;-81
2023/07/25 00:57:16;;;;;;;11.88;4.43;;;12.80;99.90;;;;;;5010513;28;20421;-81
2023/07/25 00:59:42;;;;;;;12.18;4.80;;;;;;;;;;4980470;28;20422;-82
2023/07/25 01:02:09;;;;;;;13.88;4.88;;;12.90;99.90;;;;;;5010819;28;20430;-81
2023/07/25 01:04:37;;;;;;;11.70;4.88;;;12.80;99.90;;;;;;5010845;28;20438;-81
2023/07/25 01:07:04;;;;;;;11.40;4.93;;;12.60;99.90;;;;;;5009113;28;20427;-80
2023/07/25 01:09:41;;;;;;;11.38;4.72;;;12.90;99.90;;;;;;5010842;28;20422;-80
2023/07/25 01:12:08;;;;;;;12.43;5.18;;;12.70;99.90;;;;;;4992001;28;20489;-80
2023/07/25 01:14:35;;;;;;;13.65;4.85;;;12.90;99.90;;;;;;5014915;28;20764;-80
2023/07/25 01:17:12;;;;;;;11.27;4.93;;;12.90;99.90;;;;;;5009663;28;20435;-80
2023/07/25 01:19:41;;;;;;;10.73;4.80;;;12.90;99.90;;;;;;5009691;28;20453;-80
2023/07/25 01:22:08;;;;;;;10.63;4.80;;;;;;;;;;4995588;28;20422;-80
2023/07/25 01:24:35;;;;;;;11.73;5.30;;;12.80;99.90;;;;;;4994557;28;20419;-81
2023/07/25 01:27:02;;;;;;;13.40;4.78;;;13.00;99.90;;;;;;4994480;28;20415;-81
2023/07/25 01:29:29;;;;;;;13.05;4.53;;;;;;;;;;5009726;28;20903;-81
2023/07/25 01:31:55;;;;;;;14.15;5.10;;;;;;;;;;5008502;28;20492;-81
2023/07/25 01:34:20;;;;;;;16.67;5.85;;;13.00;99.90;;;;;;5008475;28;20428;-80
2023/07/25 01:36:46;;;;;;;10.80;4.90;;;13.10;99.90;;;;;;4996210;28;20446;-80
2023/07/25 01:39:12;;;;;;;12.07;4.70;;;13.00;99.90;;;;;;4983925;28;20420;-80
2023/07/25 01:41:41;;;;;;;10.93;4.47;;;13.10;99.90;;;;;;4980216;28;20424;-80
2023/07/25 01:44:06;;;;;;;15.23;4.97;;;13.00;99.90;;;;;;5010436;28;20434;-80
2023/07/25 01:46:33;;;;;;;12.27;5.18;;;;;;;;;;4993016;28;20486;-81
2023/07/25 01:48:58;;;;;;;14.82;4.72;;;12.70;99.90;;;;;;5005015;28;20515;-81
2023/07/25 01:51:24;;;;;;;15.20;4.80;;;13.10;99.90;;;;;;4992100;28;20525;-80
2023/07/25 01:53:50;;;;;;;15.57;4.93;;;;;;;;;;4995828;28;20419;-81
2023/07/25 01:56:16;;;;;;;10.90;4.97;;;12.80;99.90;;;;;;4996260;28;20415;-81
2023/07/25 01:58:42;;;;;;;10.02;4.50;;;12.70;99.90;;;;;;5008636;28;20822;-80
2023/07/25 02:01:08;;;;;;;11.93;5.70;;;13.00;99.90;;;;;;4998420;28;20456;-81
2023/07/25 02:03:33;;;;;;;12.63;4.80;;;12.90;99.90;;;;;;4994211;28;20430;-81
2023/07/25 02:05:59;;;;;;;12.80;5.27;;;13.00;99.90;;;;;;4995632;28;20427;-81
2023/07/25 02:08:26;;;;;;;12.20;4.63;;;13.00;99.90;;;;;;4976151;28;21002;-81
2023/07/25 02:10:51;;;;;;;11.25;4.38;;;13.20;99.90;;;;;;4995982;28;20428;-80
2023/07/25 02:13:17;;;;;;;11.85;4.28;;;13.10;99.90;;;;;;4977224;28;20922;-81
2023/07/25 02:15:43;;;;;;;14.50;5.13;;;13.10;99.90;;;;;;5014226;28;20406;-80
2023/07/25 02:18:08;;;;;;;15.50;4.70;;;13.10;99.90;;;;;;4992227;28;20515;-80
2023/07/25 02:20:34;;;;;;;10.07;4.20;;;13.00;99.90;;;;;;5012209;28;20426;-81
2023/07/25 02:23:00;;;;;;;12.45;4.57;;;13.10;99.90;;;;;;4993209;28;20744;-80
2023/07/25 02:25:28;;;;;;;11.75;4.28;;;13.00;99.90;;;;;;4985952;28;20422;-81
2023/07/25 02:27:53;;;;;;;11.10;4.22;;;13.00;99.90;;;;;;4995205;28;20951;-80
2023/07/25 02:30:21;;;;;;;13.53;4.40;;;12.90;99.90;;;;;;5012956;28;20422;-81
2023/07/25 02:32:46;;;;;;;11.32;4.28;;;13.00;99.90;;;;;;4979198;28;20415;-80
2023/07/25 02:35:14;;;;;;;12.98;4.38;;;13.00;99.90;;;;;;4987754;28;20419;-81
2023/07/25 02:37:40;;;;;;;12.55;4.45;;;13.10;99.90;;;;;;5015819;28;20817;-81
2023/07/25 02:40:07;;;;;;;9.95;4.05;;;13.10;99.90;;;;;;5000019;28;20427;-81
2023/07/25 02:42:33;;;;;;;15.57;4.72;;;13.20;99.90;;;;;;5012890;28;20437;-81
2023/07/25 02:44:58;;;;;;;12.48;4.10;;;13.10;99.90;;;;;;4997084;28;20596;-81
2023/07/25 02:47:24;;;;;;;13.00;4.47;;;13.30;99.90;;;;;;4993459;28;21021;-81
2023/07/25 02:49:50;;;;;;;8.35;4.22;;;13.20;99.90;;;;;;4999277;28;20418;-81
2023/07/25 02:52:17;;;;;;;13.77;4.55;;;13.10;99.90;;;;;;5014885;28;20899;-81
2023/07/25 02:54:42;;;;;;;9.50;4.38;;;13.20;99.90;;;;;;5005775;28;20410;-81
2023/07/25 02:57:08;;;;;;;10.90;4.60;;;13.20;99.90;;;;;;4998039;28;20423;-81
2023/07/25 02:59:34;;;;;;;10.03;4.23;;;13.20;99.90;;;;;;5012761;28;20411;-81
2023/07/25 03:01:59;;;;;;;14.77;4.43;;;13.30;99.90;;;;;;5015627;28;20426;-81
2023/07/25 03:04:25;;;;;;;13.27;4.97;;;13.30;99.90;;;;;;4973669;28;20912;-82
2023/07/25 03:06:51;;;;;;;11.93;4.57;;;;;;;;;;5016025;28;20426;-81
2023/07/25 03:09:17;;;;;;;17.55;5.10;;;13.00;99.90;;;;;;5011038;28;20459;-80
2023/07/25 03:11:43;;;;;;;11.32;4.68;;;13.20;99.90;;;;;;4960684;28;20458;-80
2023/07/25 03:14:09;;;;;;;10.88;4.55;;;;;;;;;;5015339;28;20423;-81
2023/07/25 03:16:34;;;;;;;13.60;4.88;;;13.10;99.90;;;;;;5009820;28;20414;-80
2023/07/25 03:19:00;;;;;;;12.07;4.45;;;;;;;;;;4984147;28;20414;-80
2023/07/25 03:21:26;;;;;;;13.35;4.88;;;13.00;99.90;;;;;;4993991;28;20459;-80
2023/07/25 03:23:52;;;;;;;12.20;4.90;;;12.90;99.90;;;;;;5012750;28;20450;-80
2023/07/25 03:26:17;;;;;;;15.20;5.03;;;13.10;99.90;;;;;;4998620;28;20431;-80
2023/07/25 03:28:43;;;;;;;14.10;4.87;;;12.80;99.90;;;;;;5011492;28;21141;-81
2023/07/25 03:31:09;;;;;;;13.97;5.20;;;12.90;99.90;;;;;;5014541;28;20484;-81
2023/07/25 03:33:34;;;;;;;11.67;5.10;;;13.00;99.90;;;;;;4996170;28;20422;-81
2023/07/25 03:36:00;;;;;;;12.25;4.70;;;;;;;;;;4998473;28;20437;-81
2023/07/25 03:38:26;;;;;;;11.60;4.75;;;12.70;99.90;;;;;;5013462;28;20434;-81
2023/07/25 03:40:52;;;;;;;15.63;5.50;;;;;;;;;;5013884;28;20792;-81
2023/07/25 03:43:20;;;;;;;9.27;4.60;;;12.50;99.90;;;;;;5006587;28;20441;-81
2023/07/25 03:45:46;;;;;;;12.75;5.13;;;;;;;;;;4992232;28;20431;-81
2023/07/25 03:48:12;;;;;;;15.60;5.20;;;12.60;99.90;;;;;;5009893;28;20431;-81
2023/07/25 03:50:37;;;;;;;14.63;5.88;;;12.70;99.90;;;;;;4982128;28;20553;-80
2023/07/25 03:53:04;;;;;;;13.23;5.07;;;12.50;99.90;;;;;;5001355;28;20421;-80
2023/07/25 03:55:30;;;;;;;14.00;5.20;;;12.70;99.90;;;;;;4996358;28;20527;-80
2023/07/25 03:57:56;;;;;;;16.40;4.82;;;12.30;99.90;;;;;;5012862;28;20502;-81
2023/07/25 04:00:21;;;;;;;13.57;4.90;;;12.40;99.90;;;;;;4998286;28;20439;-81
2023/07/25 04:02:48;;;;;;;10.73;4.60;;;;;;;;;;4996800;28;20423;-80
2023/07/25 04:05:14;;;;;;;13.57;4.75;;;12.40;99.90;;;;;;5012994;28;20833;-81
2023/07/25 04:07:40;;;;;;;13.02;4.88;;;12.30;99.90;;;;;;4989706;28;20431;-80
2023/07/25 04:10:06;;;;;;;11.75;4.85;;;12.40;99.90;;;;;;4981343;28;20435;-82
2023/07/25 04:12:32;;;;;;;12.10;5.43;;;;;;;;;;5012722;28;20430;-81
2023/07/25 04:14:58;;;;;;;10.52;5.20;;;12.50;99.90;;;;;;4996691;28;20476;-81
2023/07/25 04:17:24;;;;;;;12.13;4.80;;;12.40;99.90;;;;;;5014741;28;20505;-81
2023/07/25 04:19:49;;;;;;;12.57;5.27;;;12.10;99.90;;;;;;4993559;28;20426;-81
2023/07/25 04:22:15;;;;;;;12.55;4.28;;;12.40;99.90;;;;;;5002434;28;20425;-81
2023/07/25 04:24:41;;;;;;;10.65;4.60;;;12.30;99.90;;;;;;4980121;28;20429;-82
2023/07/25 04:27:07;;;;;;;12.70;4.65;;;;;;;;;;4990929;28;20916;-82
2023/07/25 04:29:32;;;;;;;12.75;4.82;;;12.50;99.90;;;;;;5006302;28;20426;-80
2023/07/25 04:31:58;;;;;;;12.82;5.10;;;;;;;;;;4999770;28;20473;-81
2023/07/25 04:34:25;;;;;;;12.10;5.47;;;;;;;;;;5006300;28;20425;-81
2023/07/25 04:36:51;;;;;;;11.43;5.00;;;;;;;;;;4976624;28;20927;-81
2023/07/25 04:39:18;;;;;;;11.98;5.35;;;;;;;;;;4980431;28;20416;-81
2023/07/25 04:41:44;;;;;;;11.75;4.63;;;12.40;99.90;;;;;;4995870;28;20459;-81
2023/07/25 04:44:10;;;;;;;9.05;4.30;;;;;;;;;;4993108;28;20818;-80
2023/07/25 04:46:36;;;;;;;11.07;4.22;;;;;;;;;;4991211;28;20423;-81
2023/07/25 04:49:02;;;;;;;14.35;4.60;;;;;;;;;;4998893;28;20430;-81
2023/07/25 04:51:28;;;;;;;9.13;4.22;;;;;;;;;;4992767;28;20421;-81
2023/07/25 04:53:54;;;;;;;9.88;3.85;;;;;;;;;;5001268;28;20975;-81
2023/07/25 04:56:20;;;;;;;11.00;3.75;;;12.60;99.90;;;;;;4984541;28;20421;-82
2023/07/25 04:58:46;;;;;;;12.80;4.10;;;13.00;99.90;;;;;;4982378;28;20464;-82
2023/07/25 05:01:12;;;;;;;11.90;3.90;;;;;;;;;;4979002;28;20508;-82
2023/07/25 05:03:38;;;;;;;12.05;3.45;;;13.10;99.90;;;;;;5012736;28;20433;-82
2023/07/25 05:06:04;;;;;;;9.20;3.90;;;;;;;;;;4978450;28;20472;-82
2023/07/25 05:08:30;;;;;;;11.38;3.40;;;;;;;;;;4980480;28;20467;-82
2023/07/25 05:10:56;;;;;;;9.70;3.10;;;;;;;;;;5014090;28;20927;-80
2023/07/25 05:13:22;;;;;;;8.05;3.13;;;;;;;;;;5011942;28;20494;-81
2023/07/25 05:15:48;;;;;;;7.85;3.08;;;;;;;;;;5002032;28;20426;-81
2023/07/25 05:18:14;;;;;;;13.57;3.70;;;;;;;;;;5000954;28;20424;-81
2023/07/25 05:20:40;;;;;;;9.55;3.35;;;13.60;99.90;;;;;;4997106;28;20414;-81
2023/07/25 05:23:06;;;;;;;8.50;3.20;;;;;;;;;;4978334;28;20899;-81
2023/07/25 05:25:32;;;;;;;10.98;2.95;;;13.60;99.90;;;;;;4994973;28;20454;-81
2023/07/25 05:27:58;;;;;;;8.65;2.95;;;13.60;99.90;;;;;;4992409;28;20485;-81
2023/07/25 05:30:23;;;;;;;10.75;3.47;;;13.70;99.90;;;;;;5001666;28;20444;-81
2023/07/25 05:32:49;;;;;;;10.27;2.90;;;;;;;;;;4989909;28;20488;-81
2023/07/25 05:35:16;;;;;;;9.30;3.00;;;13.60;99.90;;;;;;4991048;28;20495;-82
2023/07/25 05:37:42;;;;;;;8.50;2.70;;;;;;;;;;4993512;28;20458;-82
2023/07/25 05:40:08;;;;;;;7.43;2.50;;;13.60;99.90;;;;;;4986795;28;20482;-82
2023/07/25 05:42:34;;;;;;;8.83;2.40;;;13.80;99.90;;;;;;5013711;28;20486;-82
2023/07/25 05:45:00;;;;;;;10.07;2.50;;;13.90;99.90;;;;;;5010000;28;20431;-82
2023/07/25 05:47:27;;;;;;;13.43;2.80;;;13.80;99.90;;;;;;5006777;28;20432;-81
2023/07/25 05:49:53;;;;;;;7.18;2.40;;;;;;;;;;4993764;28;20425;-81
2023/07/25 05:52:19;;;;;;;7.65;2.78;;;13.80;99.90;;;;;;5010301;28;20565;-80
2023/07/25 05:54:44;;;;;;;9.43;2.50;;;14.00;99.90;;;;;;4995814;28;20548;-80
2023/07/25 05:57:11;;;;;;;11.05;2.50;;;;;;;;;;4998796;28;20456;-81
2023/07/25 05:59:36;;;;;;;6.95;2.25;;;14.20;99.90;;;;;;5013803;28;20605;-80
2023/07/25 06:02:03;;;;;;;11.07;3.05;;;14.40;99.90;;;;;;5029876;28;20569;-81
2023/07/25 06:04:30;;;;;;;8.15;2.13;;;14.40;99.90;;;;;;5013145;28;20531;-81
2023/07/25 06:06:55;;;;;;;8.00;2.20;;;14.40;99.90;;;;;;5009876;28;20426;-81
2023/07/25 06:09:21;;;;;;;7.50;2.33;;;14.70;99.90;;;;;;4998339;28;20431;-81
2023/07/25 06:11:47;;;;;;;7.50;2.10;;;14.60;99.90;;;;;;4993276;28;20425;-81
2023/07/25 06:14:12;;;;;;;7.82;2.20;;;14.60;99.90;;;;;;5003055;28;20932;-82
2023/07/25 06:16:38;;;;;;;7.68;1.90;;;14.80;99.90;;;;;;4987183;28;20514;-81
2023/07/25 06:19:04;;;;;;;8.93;2.00;;;;;;;;;;5005593;28;20911;-81
2023/07/25 06:21:30;;;;;;;6.18;1.77;;;14.80;99.90;;;;;;5013440;28;20423;-81
2023/07/25 06:23:56;;;;;;;5.57;2.05;;;15.10;99.90;;;;;;5010961;28;20998;-81
2023/07/25 06:26:21;;;;;;;8.60;1.92;;;15.30;99.90;;;;;;5006159;28;20416;-82
2023/07/25 06:28:47;;;;;;;9.63;2.03;;;15.00;99.90;;;;;;4995122;28;20790;-82
2023/07/25 06:31:13;;;;;;;6.13;1.67;;;15.40;99.90;;;;;;4987268;28;20446;-81
2023/07/25 06:33:39;;;;;;;8.68;1.55;;;15.50;99.90;;;;;;5012481;28;20486;-81
2023/07/25 06:36:04;;;;;;;3.53;1.20;;;15.30;99.90;;;;;;5009696;28;20427;-81
2023/07/25 06:38:30;;;;;;;6.07;1.60;;;15.70;99.90;;;;;;5007936;28;20729;-81
2023/07/25 06:40:56;;;;;;;5.87;1.30;;;15.40;99.90;;;;;;4984032;28;20441;-81
2023/07/25 06:43:22;;;;;;;4.38;1.30;;;15.50;99.90;;;;;;5013835;28;20433;-81
2023/07/25 06:45:50;;;;;;;6.97;1.50;;;15.60;99.90;;;;;;4967614;28;20920;-82
2023/07/25 06:48:16;;;;;;;5.22;1.50;;;15.50;99.90;;;;;;5016543;28;20791;-81
2023/07/25 06:50:42;;;;;;;7.45;1.20;;;15.70;99.90;;;;;;5012106;28;20415;-81
2023/07/25 06:53:08;;;;;;;3.55;1.30;;;15.70;99.90;;;;;;5018222;28;20419;-82
2023/07/25 06:55:34;;;;;;;4.95;1.40;;;15.60;99.90;;;;;;5014488;28;20984;-82
2023/07/25 06:58:01;;;;;;;4.53;1.20;;;15.70;99.90;;;;;;5002689;28;20435;-81
2023/07/25 07:00:27;;;;;;;3.90;1.10;;;15.60;99.90;;;;;;5012698;28;20427;-81
2023/07/25 07:02:54;;;;;;;2.83;1.10;;;15.60;99.90;;;;;;4996887;28;20494;-81
2023/07/25 07:05:20;;;;;;;6.93;1.60;;;17.30;99.90;;;;;;4999974;28;20431;-82
2023/07/25 07:07:46;;;;;;;5.07;1.13;;;15.80;99.90;;;;;;4993163;28;20477;-81
2023/07/25 07:10:12;;;;;;;3.60;1.08;;;15.90;99.90;;;;;;5025266;28;20906;-80
2023/07/25 07:12:45;;;;;;;4.30;1.00;;;16.00;99.90;;;;;;4997504;28;20494;-82
2023/07/25 07:15:12;;;;;;;3.60;1.15;;;16.10;99.90;;;;;;4999659;28;20426;-81
2023/07/25 07:17:38;;;;;;;5.18;1.30;;;16.20;99.90;;;;;;4984227;28;20425;-81
2023/07/25 07:20:04;;;;;;;4.35;1.10;;;16.00;99.90;;;;;;5011410;28;20426;-81
2023/07/25 07:22:30;;;;;;;2.80;1.00;;;16.20;99.90;;;;;;4995553;28;20521;-81
2023/07/25 07:24:56;;;;;;;6.43;1.30;;;16.20;99.90;;;;;;5031839;28;20505;-80
2023/07/25 07:27:23;;;;;;;4.23;1.40;;;16.40;99.90;;;;;;4979528;28;20417;-81
2023/07/25 07:29:49;;;;;;;4.63;1.08;;;16.50;99.90;;;;;;5004090;28;20435;-80
2023/07/25 07:32:15;;;;;;;5.13;1.02;;;16.70;99.90;;;;;;5001887;28;20426;-80
2023/07/25 07:34:41;;;;;;;4.07;1.20;;;16.70;99.90;;;;;;4982590;28;20404;-81
2023/07/25 07:37:06;;;;;;;4.50;1.10;;;16.60;99.90;;;;;;5012554;28;20476;-81
2023/07/25 07:39:32;;;;;;;7.25;1.35;;;16.80;99.90;;;;;;4998955;28;20506;-81
2023/07/25 07:41:58;;;;;;;3.08;0.95;;;16.50;99.90;;;;;;5001922;28;20423;-81
2023/07/25 07:44:23;;;;;;;7.60;1.30;;;16.50;99.90;;;;;;5000767;28;20431;-82
2023/07/25 07:46:49;;;;;;;6.70;1.20;;;16.50;99.90;;;;;;4981712;28;20931;-81
2023/07/25 07:49:15;;;;;;;4.40;1.00;;;16.80;99.90;;;;;;4983228;28;20474;-81
2023/07/25 07:51:40;;;;;;;5.35;1.13;;;16.70;99.90;;;;;;4975274;28;20776;-81
2023/07/25 07:54:06;;;;;;;5.80;1.13;;;16.80;99.90;;;;;;4965575;28;20431;-81
2023/07/25 07:56:32;;;;;;;3.77;1.03;;;16.80;99.90;;;;;;5007407;28;20416;-81
2023/07/25 07:58:57;;;;;;;3.45;1.20;;;16.90;99.90;;;;;;5012990;28;20433;-80
2023/07/25 08:01:23;;;;;;;4.30;1.10;;;17.20;99.90;;;;;;4984870;28;20481;-80
2023/07/25 08:03:49;;;;;;;4.57;1.30;;;17.30;99.90;;;;;;4998128;28;20916;-82
2023/07/25 08:06:16;;;;;;;5.03;1.20;;;17.40;99.90;;;;;;4966748;28;20441;-82
2023/07/25 08:08:42;;;;;;;3.60;1.00;;;17.20;99.90;;;;;;4980137;28;20446;-82
2023/07/25 08:11:08;;;;;;;5.43;1.20;;;17.40;99.90;;;;;;4984091;28;20740;-82
2023/07/25 08:13:34;;;;;;;5.87;1.27;;;17.40;99.90;;;;;;4987357;28;20422;-81
2023/07/25 08:16:00;;;;;;;4.50;1.20;;;18.00;99.90;;;;;;5008075;28;20483;-81
2023/07/25 08:18:26;;;;;;;4.55;1.20;;;17.80;99.90;;;;;;5009391;28;20504;-81
2023/07/25 08:20:56;;;;;;;3.58;1.20;;;17.80;99.90;;;;;;4978919;28;20954;-82
2023/07/25 08:23:23;;;;;;;3.25;1.00;;;18.00;99.90;;;;;;4977889;28;20431;-81
2023/07/25 08:25:49;;;;;;;6.10;1.10;;;18.10;99.90;;;;;;4956901;28;20439;-81
2023/07/25 08:28:16;;;;;;;3.63;1.08;;;18.10;99.90;;;;;;4998475;28;20430;-81
2023/07/25 08:30:42;;;;;;;2.90;1.20;;;18.10;99.90;;;;;;4992357;28;20920;-82
2023/07/25 08:33:08;;;;;;;7.90;1.30;;;18.10;99.90;;;;;;5011724;28;20432;-81
2023/07/25 08:35:33;;;;;;;3.30;1.20;;;18.50;99.90;;;;;;5014014;28;20405;-81
2023/07/25 08:37:59;;;;;;;4.23;1.20;;;18.40;99.90;;;;;;5013884;28;20419;-81
2023/07/25 08:40:25;;;;;;;3.90;1.20;;;18.60;99.90;;;;;;4982623;28;20869;-81
2023/07/25 08:42:56;;;;;;;8.25;1.27;;;18.70;99.90;;;;;;4995467;28;20424;-80
2023/07/25 08:45:23;;;;;;;5.72;1.40;;;18.80;99.90;;;;;;5030581;28;20415;-81
2023/07/25 08:47:52;;;;;;;3.17;0.95;;;19.80;99.90;;;;;;5015944;28;20425;-81
2023/07/25 08:50:20;;;;;;;2.97;1.15;;;18.80;99.90;;;;;;5033416;28;20425;-81
2023/07/25 08:52:52;;;;;;;3.60;1.10;;;18.00;99.90;;;;;;4983152;28;20515;-81
2023/07/25 08:55:20;;;;;;;4.20;1.10;;;18.70;99.90;;;;;;5034158;28;20403;-79
2023/07/25 08:57:48;;;;;;;3.63;1.10;;;18.90;99.90;;;;;;5016497;28;20407;-80
2023/07/25 09:00:15;;;;;;;6.28;1.20;;;18.70;99.90;;;;;;5033521;28;20449;-80
2023/07/25 09:02:40;;;;;;;4.68;1.20;;;18.60;99.90;;;;;;5015567;28;20962;-81
2023/07/25 09:05:07;;;;;;;5.07;1.30;;;19.10;99.90;;;;;;4999606;28;20505;-81
2023/07/25 09:07:33;;;;;;;4.27;1.03;;;18.60;99.90;;;;;;5015585;28;20435;-80
2023/07/25 09:09:59;;;;;;;3.17;1.00;;;18.50;99.90;;;;;;4999126;28;20410;-81
2023/07/25 09:12:25;;;;;;;5.13;1.05;;;19.00;99.90;;;;;;4998964;28;20411;-80
2023/07/25 09:18:37;;;;;;;3.80;1.10;;;18.50;99.90;;;;;;5105701;27;20389;-80
2023/07/25 09:21:03;;;;;;;4.27;1.50;;;18.50;99.90;;;;;;5075123;28;20883;-81
2023/07/25 09:23:29;;;;;;;3.97;1.15;;;18.90;99.90;;;;;;5091050;28;20445;-81
2023/07/25 09:26:10;;;;;;;4.03;1.30;;;18.90;99.90;;;;;;5096044;28;20440;-80
2023/07/25 09:28:47;;;;;;;3.97;1.25;;;17.10;99.90;;;;;;5083259;28;20428;-77
2023/07/25 09:31:12;;;;;;;3.85;1.17;;;19.10;99.90;;;;;;5087367;28;20408;-77
2023/07/25 09:33:39;;;;;;;5.13;1.40;;;19.20;99.90;;;;;;5052711;28;20612;-77
2023/07/25 09:36:06;;;;;;;5.72;1.40;;;19.20;99.90;;;;;;5060060;28;20412;-77
2023/07/25 09:38:33;;;;;;;6.22;1.60;;;18.80;99.90;;;;;;5086258;28;20424;-77
2023/07/25 09:41:03;;;;;;;6.97;1.50;;;18.90;99.90;;;;;;5085020;28;20492;-78
2023/07/25 09:43:29;;;;;;;6.82;1.40;;;18.90;99.90;;;;;;5057427;28;20825;-77
2023/07/25 09:45:55;;;;;;;6.25;1.50;;;18.60;99.90;;;;;;5090112;28;20488;-79
2023/07/25 09:48:21;;;;;;;5.30;1.40;;;18.60;99.90;;;;;;5087590;28;20460;-78
2023/07/25 09:50:48;;;;;;;4.22;1.30;;;18.70;99.90;;;;;;5084553;28;20421;-79
2023/07/25 09:53:17;;;;;;;5.93;1.50;;;18.60;99.90;;;;;;5038675;28;20421;-78
2023/07/25 09:55:44;;;;;;;5.88;1.60;;;18.70;99.90;;;;;;5082366;28;20783;-78
2023/07/25 09:58:11;;;;;;;5.95;1.45;;;18.40;99.90;;;;;;5057830;28;20489;-79
2023/07/25 10:00:37;;;;;;;6.15;1.58;;;18.50;99.90;;;;;;5075123;28;20504;-80
2023/07/25 10:03:04;;;;;;;5.05;1.65;;;18.70;99.90;;;;;;5095295;28;20524;-80
2023/07/25 10:05:29;;;;;;;4.20;1.27;;;18.80;99.90;;;;;;5087775;28;20986;-81
2023/07/25 10:07:57;;;;;;;5.60;1.50;;;19.20;99.90;;;;;;5058330;28;20490;-81
2023/07/25 10:10:24;;;;;;;5.68;1.33;;;19.00;99.90;;;;;;5048998;28;20422;-80
2023/07/25 10:12:50;;;;;;;4.70;1.42;;;18.90;99.90;;;;;;5074667;28;20445;-80
2023/07/25 10:15:17;;;;;;;5.97;1.25;;;19.00;99.90;;;;;;5075751;28;20414;-80
2023/07/25 10:17:42;;;;;;;5.68;1.40;;;19.00;99.90;;;;;;5062546;28;20993;-80
2023/07/25 10:20:18;;;;;;;4.85;1.40;;;19.00;99.90;;;;;;5066178;28;20445;-81
2023/07/25 10:22:44;;;;;;;3.85;1.10;;;18.80;99.90;;;;;;5048677;28;20419;-80
2023/07/25 10:25:19;;;;;;;6.55;1.40;;;18.70;99.90;;;;;;5056009;28;20405;-80
2023/07/25 10:27:45;;;;;;;3.03;1.10;;;18.80;99.90;;;;;;5079866;28;20907;-80
2023/07/25 10:30:22;;;;;;;3.70;1.10;;;18.70;99.90;;;;;;5038185;28;20419;-81
2023/07/25 10:32:52;;;;;;;5.85;1.42;;;18.90;99.90;;;;;;5068523;28;20421;-80
2023/07/25 10:35:38;;;;;;;4.70;1.20;;;19.20;99.90;;;;;;5056031;28;20421;-80
2023/07/25 10:38:19;;;;;;;5.95;1.50;;;19.40;99.90;;;;;;5068170;28;20452;-80
2023/07/25 10:40:54;;;;;;;3.25;1.13;;;19.90;99.90;;;;;;5057846;28;20493;-79
2023/07/25 10:43:21;;;;;;;2.93;1.00;;;19.90;99.90;;;;;;5067934;28;20553;-80
2023/07/25 10:45:52;;;;;;;4.22;1.30;;;19.40;99.90;;;;;;5050443;28;20412;-80
2023/07/25 10:48:35;;;;;;;3.97;1.40;;;19.50;99.90;;;;;;5077728;28;20427;-80
2023/07/25 10:51:06;;;;;;;3.35;1.20;;;19.80;99.90;;;;;;5074786;28;20909;-80
2023/07/25 10:53:32;;;;;;;4.68;1.27;;;20.10;99.90;;;;;;5068556;28;20434;-80
2023/07/25 10:56:04;;;;;;;3.53;1.00;;;19.70;99.90;;;;;;5068251;28;20484;-79
2023/07/25 10:58:35;;;;;;;4.50;1.20;;;18.00;99.90;;;;;;5051289;28;20428;-76
2023/07/25 11:01:02;;;;;;;3.10;0.98;;;19.30;99.90;;;;;;5074652;28;20929;-81
2023/07/25 11:03:29;;;;;;;3.53;1.30;;;19.50;99.90;;;;;;5062724;28;20493;-80
2023/07/25 11:06:21;;;;;;;4.70;1.50;;;19.40;99.90;;;;;;5063551;28;20869;-80
2023/07/25 11:08:48;;;;;;;4.32;1.38;;;19.30;99.90;;;;;;5075228;28;20414;-80
2023/07/25 11:11:13;;;;;;;4.47;1.40;;;19.30;99.90;;;;;;5075833;28;20418;-80
2023/07/25 11:13:40;;;;;;;4.85;1.60;;;19.10;99.90;;;;;;5056691;28;20430;-79
2023/07/25 11:16:11;;;;;;;4.40;1.70;;;19.00;99.90;;;;;;5040501;28;20501;-79
2023/07/25 11:18:47;;;;;;;3.42;1.30;;;19.20;99.90;;;;;;5069115;28;20427;-78
2023/07/25 11:21:14;;;;;;;2.97;0.95;;;19.40;99.90;;;;;;5057659;28;20417;-79
2023/07/25 11:23:40;;;;;;;3.72;1.33;;;19.10;99.90;;;;;;5036799;28;20419;-78
2023/07/25 11:26:08;;;;;;;3.55;1.10;;;19.40;99.90;;;;;;5082312;28;20776;-79
2023/07/25 11:28:38;;;;;;;3.70;1.13;;;19.60;99.90;;;;;;5050974;28;20439;-80
2023/07/25 11:31:03;;;;;;;4.50;1.40;;;19.70;99.90;;;;;;5053332;28;20417;-80
2023/07/25 11:33:37;;;;;;;3.20;1.10;;;19.80;99.90;;;;;;5033516;28;20446;-79
2023/07/25 11:36:03;;;;;;;3.28;1.15;;;18.70;99.90;;;;;;5078054;28;20414;-80
2023/07/25 11:38:28;;;;;;;3.60;1.00;;;20.10;99.90;;;;;;5043199;28;20429;-80
2023/07/25 11:40:56;;;;;;;4.70;1.20;;;20.10;99.90;;;;;;5066483;28;20534;-80
2023/07/25 11:43:22;;;;;;;2.83;0.90;;;20.30;99.90;;;;;;5054323;28;20423;-81
2023/07/25 11:45:48;;;;;;;3.03;1.17;;;20.20;99.90;;;;;;5042890;28;20415;-80
2023/07/25 11:48:17;;;;;;;3.00;1.00;;;20.20;99.90;;;;;;5052764;28;20416;-79
2023/07/25 11:50:44;;;;;;;3.83;1.50;;;20.10;99.90;;;;;;5039184;28;20413;-79
2023/07/25 11:53:11;;;;;;;4.43;1.00;;;19.60;99.90;;;;;;5070604;28;20418;-79
2023/07/25 11:55:39;;;;;;;4.15;0.95;;;19.40;99.90;;;;;;5057039;28;20783;-80
2023/07/25 11:58:05;;;;;;;4.82;1.30;;;19.20;99.90;;;;;;5040183;28;20420;-79
2023/07/25 12:00:41;;;;;;;3.92;1.10;;;19.10;99.90;;;;;;5052083;28;20408;-77
2023/07/25 12:03:24;;;;;;;3.08;1.35;;;18.80;99.90;;;;;;5046636;28;20409;-78
2023/07/25 12:05:57;;;;;;;5.13;1.20;;;18.90;99.90;;;;;;5052819;28;20406;-79
2023/07/25 12:08:34;;;;;;;3.97;1.73;;;18.80;99.90;;;;;;5056012;28;20495;-79
2023/07/25 12:11:04;;;;;;;4.47;1.38;;;19.00;99.90;;;;;;5063237;28;20406;-79
2023/07/25 12:13:30;;;;;;;3.70;1.30;;;19.00;99.90;;;;;;5045505;28;20925;-78
2023/07/25 12:15:57;;;;;;;3.03;1.00;;;19.00;99.90;;;;;;5074895;28;20440;-78
2023/07/25 12:18:31;;;;;;;2.88;0.80;;;19.20;99.90;;;;;;5028561;28;20472;-78
2023/07/25 12:20:58;;;;;;;2.25;0.80;;;19.40;99.90;;;;;;5055990;28;20420;-79
2023/07/25 12:23:38;;;;;;;1.88;0.70;;;19.60;99.90;;;;;;5040055;28;20423;-79
2023/07/25 12:26:05;;;;;;;3.58;0.93;;;19.40;99.90;;;;;;5055998;28;20403;-80
2023/07/25 12:28:44;;;;;;;3.70;0.93;;;19.40;99.90;;;;;;5047174;28;20423;-79
2023/07/25 12:31:11;;;;;;;2.08;1.00;;;19.10;99.90;;;;;;5057709;28;20532;-78
2023/07/25 12:33:38;;;;;;;2.80;1.00;;;18.90;99.90;;;;;;5041283;28;20478;-79
2023/07/25 12:36:04;;;;;;;2.97;1.20;;;18.80;99.90;;;;;;5061835;28;20581;-79
2023/07/25 12:38:30;;;;;;;3.53;1.20;;;18.70;99.90;;;;;;5040554;28;20418;-79
2023/07/25 12:40:56;;;;;;;5.18;1.50;;;18.70;99.90;;;;;;5052883;28;20750;-79
2023/07/25 12:43:21;;;;;;;5.97;1.40;;;18.40;99.90;;;;;;5054634;28;20423;-78
2023/07/25 12:45:47;;;;;;;4.20;1.30;;;18.30;99.90;;;;;;5055621;28;20409;-78
2023/07/25 12:48:13;;;;;;;3.97;1.40;;;17.90;99.90;;;;;;5045220;28;20929;-77
2023/07/25 12:50:39;;;;;;;3.85;1.10;;;17.70;99.90;;;;;;5060547;28;20420;-78
2023/07/25 12:53:08;;;;;;;6.63;2.00;;;17.80;99.90;;;;;;5050436;28;20950;-80
2023/07/25 12:55:35;;;;;;;5.75;1.33;;;17.70;99.90;;;;;;5055066;28;20503;-79
2023/07/25 12:58:01;;;;;;;3.97;1.40;;;17.60;99.90;;;;;;5066974;28;20498;-79
2023/07/25 13:00:27;;;;;;;4.95;1.50;;;17.70;99.90;;;;;;5050467;28;20474;-79